Time;durP1;ratioP1;P1;durP2;ratioP2;P2;SDS_P1;SDS_P2;PMS_P1;PMS_P2;Temp;Humidity;BMP_temperature;BMP_pressure;BME280_temperature;BME280_humidity;BME280_pressure;Samples;Min_cycle;Max_cycle;Signal;HPM_P1;HPM_P2
2021/06/11 00:00:01;;;;;;;34.08;22.52;;;;;;;15.18;81.04;102109.38;688322;28;922;-65
2021/06/11 00:00:22;;;;;;;36.50;22.17;;;;;;;15.16;80.86;102103.25;688338;28;854;-65
2021/06/11 00:00:45;;;;;;;36.22;22.40;;;;;;;15.03;81.33;102112.63;688553;28;896;-65
2021/06/11 00:01:06;;;;;;;36.95;23.25;;;;;;;15.06;81.53;102112.50;688064;28;1536;-64
2021/06/11 00:01:26;;;;;;;36.83;23.33;;;;;;;15.09;81.16;102115.06;688258;28;844;-64
2021/06/11 00:01:46;;;;;;;36.43;22.50;;;;;;;15.07;81.38;102113.38;688293;28;819;-65
2021/06/11 00:02:09;;;;;;;35.17;21.92;;;;;;;15.06;81.01;102107.22;688066;28;1547;-64
2021/06/11 00:02:30;;;;;;;37.70;22.13;;;;;;;15.13;81.21;102110.47;690891;28;879;-65
2021/06/11 00:02:56;;;;;;;35.63;21.40;;;;;;;15.14;80.82;102105.13;691042;28;827;-65
2021/06/11 00:03:17;;;;;;;33.33;22.92;;;;;;;15.16;80.69;102111.22;691082;28;898;-65
2021/06/11 00:03:39;;;;;;;35.50;22.80;;;;;;;15.16;80.87;102108.56;691144;28;871;-66
2021/06/11 00:04:00;;;;;;;36.92;22.05;;;;;;;15.15;80.77;102106.84;690982;28;855;-65
2021/06/11 00:04:21;;;;;;;37.88;21.58;;;;;;;15.17;80.71;102105.00;690757;28;1352;-66
2021/06/11 00:04:41;;;;;;;34.37;21.80;;;;;;;15.08;80.56;102105.38;692078;28;795;-66
2021/06/11 00:05:04;;;;;;;32.28;21.50;;;;;;;15.11;80.75;102104.38;692139;28;820;-66
2021/06/11 00:05:30;;;;;;;32.58;21.40;;;;;;;15.08;80.82;102108.03;691447;28;1464;-66
2021/06/11 00:05:53;;;;;;;34.65;21.33;;;;;;;15.11;80.86;102110.56;691838;28;910;-67
2021/06/11 00:06:14;;;;;;;33.72;21.02;;;;;;;15.14;80.80;102109.53;691504;28;959;-65
2021/06/11 00:06:35;;;;;;;33.05;20.90;;;;;;;15.16;80.57;102102.38;692115;28;1121;-65
2021/06/11 00:07:03;;;;;;;33.90;21.92;;;;;;;15.10;80.81;102103.50;691713;28;887;-65
2021/06/11 00:07:23;;;;;;;33.65;22.33;;;;;;;15.10;80.85;102108.81;691978;28;1308;-66
2021/06/11 00:07:44;;;;;;;33.45;21.90;;;;;;;15.13;80.80;102100.72;692040;28;1058;-66
2021/06/11 00:08:05;;;;;;;33.73;20.90;;;;;;;15.15;80.86;102106.84;691715;28;1338;-65
2021/06/11 00:08:28;;;;;;;33.75;20.73;;;;;;;15.09;81.35;102104.44;691835;28;797;-65
2021/06/11 00:08:48;;;;;;;32.35;20.23;;;;;;;15.09;81.14;102101.78;691751;28;898;-65
2021/06/11 00:09:12;;;;;;;32.65;20.15;;;;;;;15.05;81.52;102099.31;691232;28;822;-70
2021/06/11 00:09:35;;;;;;;30.23;19.95;;;;;;;15.10;81.10;102105.28;691055;28;915;-65
2021/06/11 00:09:58;;;;;;;30.17;19.27;;;;;;;15.12;80.97;102100.78;691117;28;911;-67
2021/06/11 00:10:18;;;;;;;30.08;19.33;;;;;;;15.16;81.24;102102.38;690978;28;1093;-65
2021/06/11 00:10:39;;;;;;;31.23;19.63;;;;;;;15.14;81.16;102105.13;691073;28;843;-65
2021/06/11 00:11:00;;;;;;;32.45;20.58;;;;;;;15.10;80.80;102108.81;690597;28;1330;-65
2021/06/11 00:11:20;;;;;;;32.87;20.13;;;;;;;15.14;80.69;102105.13;691014;28;1002;-65
2021/06/11 00:11:43;;;;;;;30.60;19.97;;;;;;;15.08;80.98;102100.06;690849;28;1041;-66
2021/06/11 00:12:03;;;;;;;34.53;21.95;;;;;;;15.08;81.25;102102.72;690908;28;907;-66
2021/06/11 00:12:24;;;;;;;34.23;21.17;;;;;;;15.14;80.71;102105.13;690687;28;1181;-65
2021/06/11 00:12:47;;;;;;;31.40;20.55;;;;;;;15.16;80.92;102105.91;690806;28;1038;-65
2021/06/11 00:13:08;;;;;;;33.75;20.23;;;;;;;15.19;80.79;102102.25;690905;28;894;-64
2021/06/11 00:13:31;;;;;;;31.70;20.10;;;;;;;14.98;80.88;102104.00;690871;28;855;-64
2021/06/11 00:13:51;;;;;;;29.38;20.05;;;;;;;14.99;80.86;102105.72;691027;28;937;-65
2021/06/11 00:14:12;;;;;;;29.30;19.67;;;;;;;15.01;81.05;102098.56;690996;28;1002;-66
2021/06/11 00:14:32;;;;;;;31.67;20.10;;;;;;;15.02;80.87;102105.59;691010;28;816;-65
2021/06/11 00:14:52;;;;;;;30.43;19.83;;;;;;;15.04;81.12;102105.56;691142;28;963;-66
2021/06/11 00:15:16;;;;;;;29.23;19.60;;;;;;;15.10;80.92;102103.50;691047;28;951;-66
2021/06/11 00:15:37;;;;;;;29.67;18.60;;;;;;;15.12;80.55;102106.97;690936;28;1307;-64
2021/06/11 00:15:57;;;;;;;28.33;18.52;;;;;;;15.14;80.70;102104.22;691076;28;899;-66
2021/06/11 00:16:17;;;;;;;27.67;18.40;;;;;;;15.15;80.47;102101.53;691036;28;923;-65
2021/06/11 00:16:37;;;;;;;28.33;18.45;;;;;;;15.16;80.19;102099.72;691106;28;911;-65
2021/06/11 00:16:58;;;;;;;29.87;18.83;;;;;;;15.14;80.35;102107.78;689693;28;1504;-64
2021/06/11 00:17:21;;;;;;;30.50;18.80;;;;;;;15.12;80.40;102104.31;688339;28;1217;-66
2021/06/11 00:17:48;;;;;;;28.95;18.23;;;;;;;15.08;80.54;102097.41;688475;28;791;-65
2021/06/11 00:18:08;;;;;;;29.05;18.70;;;;;;;15.06;80.62;102101.91;688181;28;1951;-65
2021/06/11 00:18:31;;;;;;;28.50;18.20;;;;;;;15.02;80.54;102099.44;687858;28;1076;-65
2021/06/11 00:18:52;;;;;;;28.17;18.05;;;;;;;15.01;80.51;102103.03;688349;28;1036;-65
2021/06/11 00:19:15;;;;;;;28.43;17.47;;;;;;;15.06;80.76;102099.25;688561;28;1524;-67
2021/06/11 00:19:35;;;;;;;27.75;17.35;;;;;;;15.06;80.43;102109.84;691138;28;848;-65
2021/06/11 00:19:59;;;;;;;27.93;16.83;;;;;;;15.11;80.57;102102.59;690957;28;1014;-67
2021/06/11 00:20:20;;;;;;;27.02;16.60;;;;;;;14.99;80.82;102105.72;690758;28;2186;-64
2021/06/11 00:20:41;;;;;;;27.35;17.65;;;;;;;14.95;81.00;102109.44;690884;28;860;-64
2021/06/11 00:21:01;;;;;;;27.35;17.65;;;;;;;14.98;80.86;102109.31;690781;28;857;-65
2021/06/11 00:21:27;;;;;;;28.57;17.40;;;;;;;14.99;81.10;102105.72;690904;28;777;-64
2021/06/11 00:21:48;;;;;;;25.83;16.30;;;;;;;14.99;80.87;102107.53;690782;28;883;-64
2021/06/11 00:22:08;;;;;;;25.90;16.83;;;;;;;14.92;80.96;102102.44;690877;28;1011;-65
2021/06/11 00:22:28;;;;;;;25.63;17.30;;;;;;;14.97;80.97;102102.28;691025;28;910;-64
2021/06/11 00:22:50;;;;;;;25.77;16.95;;;;;;;15.01;80.74;102109.19;690969;28;828;-64
2021/06/11 00:23:10;;;;;;;27.15;17.25;;;;;;;15.01;80.40;102108.34;690994;28;1015;-65
2021/06/11 00:23:30;;;;;;;28.25;17.08;;;;;;;14.95;80.61;102106.78;690418;28;1539;-64
2021/06/11 00:23:51;;;;;;;27.97;17.67;;;;;;;14.89;80.52;102105.22;690558;28;1570;-64
2021/06/11 00:24:11;;;;;;;27.07;17.33;;;;;;;14.90;80.87;102108.75;690815;28;1519;-64
2021/06/11 00:24:32;;;;;;;28.10;17.23;;;;;;;14.90;81.09;102112.28;688537;28;1503;-64
2021/06/11 00:24:52;;;;;;;29.23;16.93;;;;;;;14.93;80.69;102112.16;689570;28;1472;-65
2021/06/11 00:25:15;;;;;;;28.65;17.35;;;;;;;14.86;80.86;102101.81;691003;28;1019;-64
2021/06/11 00:25:36;;;;;;;28.08;17.40;;;;;;;14.84;81.02;102111.66;691082;28;979;-65
2021/06/11 00:25:57;;;;;;;27.27;16.67;;;;;;;14.82;81.28;102109.03;691150;28;866;-64
2021/06/11 00:26:21;;;;;;;28.17;16.40;;;;;;;14.82;81.14;102102.88;690849;28;1346;-65
2021/06/11 00:26:41;;;;;;;26.90;16.58;;;;;;;14.84;81.36;102107.22;691047;28;808;-65
2021/06/11 00:27:01;;;;;;;26.30;16.63;;;;;;;14.82;81.29;102108.19;691017;28;876;-65
2021/06/11 00:27:22;;;;;;;26.10;16.40;;;;;;;14.75;81.66;102106.72;690541;28;1464;-65
2021/06/11 00:27:42;;;;;;;29.05;17.15;;;;;;;14.74;81.41;102110.28;691103;28;851;-65
2021/06/11 00:28:06;;;;;;;29.63;17.07;;;;;;;14.78;81.74;102107.44;691132;28;824;-65
2021/06/11 00:28:29;;;;;;;29.02;16.92;;;;;;;14.77;81.82;102110.19;690309;28;1349;-65
2021/06/11 00:28:49;;;;;;;28.45;17.50;;;;;;;14.81;81.78;102101.16;691062;28;999;-64
2021/06/11 00:29:09;;;;;;;27.73;16.60;;;;;;;14.82;81.42;102103.75;690948;28;844;-65
2021/06/11 00:29:30;;;;;;;26.30;15.88;;;;;;;14.86;81.71;102104.47;690736;28;1527;-65
2021/06/11 00:29:51;;;;;;;27.60;16.60;;;;;;;14.85;81.48;102108.06;691154;28;819;-64
2021/06/11 00:30:17;;;;;;;26.48;16.20;;;;;;;14.87;81.45;102106.22;690984;28;871;-64
2021/06/11 00:30:39;;;;;;;28.30;16.48;;;;;;;14.88;81.61;102102.66;691093;28;971;-64
2021/06/11 00:31:00;;;;;;;26.40;16.05;;;;;;;14.86;81.30;102099.19;690960;28;807;-64
2021/06/11 00:31:20;;;;;;;25.70;15.60;;;;;;;14.78;81.43;102106.59;691062;28;802;-65
2021/06/11 00:31:43;;;;;;;27.40;16.00;;;;;;;14.81;81.62;102106.47;691048;28;974;-65
2021/06/11 00:32:07;;;;;;;27.02;15.82;;;;;;;14.79;81.68;102098.56;690815;28;1511;-65
2021/06/11 00:32:27;;;;;;;27.50;16.15;;;;;;;14.76;81.99;102093.38;688117;28;1394;-65
2021/06/11 00:32:48;;;;;;;25.07;15.73;;;;;;;14.85;81.67;102102.75;688218;28;955;-65
2021/06/11 00:33:09;;;;;;;25.57;15.37;;;;;;;14.85;81.38;102100.97;688223;28;987;-65
2021/06/11 00:33:30;;;;;;;26.23;15.32;;;;;;;14.87;81.52;102101.78;688407;28;855;-65
2021/06/11 00:33:50;;;;;;;26.55;15.25;;;;;;;14.87;81.31;102100.94;688336;28;991;-65
2021/06/11 00:34:11;;;;;;;25.33;15.00;;;;;;;14.90;81.59;102100.78;688410;28;843;-65
2021/06/11 00:34:31;;;;;;;24.27;15.23;;;;;;;14.82;81.31;102105.53;688261;28;825;-65
2021/06/11 00:34:54;;;;;;;25.83;16.00;;;;;;;14.77;81.73;102096.91;688156;28;948;-65
2021/06/11 00:35:17;;;;;;;27.20;15.98;;;;;;;14.75;82.01;102096.94;688325;28;977;-64
2021/06/11 00:35:38;;;;;;;27.75;16.33;;;;;;;14.76;81.66;102103.97;688261;28;908;-65
2021/06/11 00:35:58;;;;;;;26.67;16.02;;;;;;;14.79;81.79;102100.34;688074;28;1284;-64
2021/06/11 00:36:18;;;;;;;26.57;15.67;;;;;;;14.78;81.58;102102.13;688128;28;1561;-66
2021/06/11 00:36:38;;;;;;;25.67;15.20;;;;;;;14.78;81.73;102096.84;688036;28;963;-65
2021/06/11 00:36:59;;;;;;;24.47;15.87;;;;;;;14.75;82.05;102101.41;688268;28;840;-65
2021/06/11 00:37:19;;;;;;;25.97;15.90;;;;;;;14.68;82.42;102101.63;688009;28;1192;-65
2021/06/11 00:37:40;;;;;;;25.17;15.53;;;;;;;14.71;82.34;102106.81;687997;28;1556;-64
2021/06/11 00:38:00;;;;;;;26.48;15.93;;;;;;;14.70;82.27;102097.13;688450;28;823;-65
2021/06/11 00:38:22;;;;;;;26.48;15.40;;;;;;;14.75;82.36;102102.25;688251;28;1910;-65
2021/06/11 00:38:42;;;;;;;26.40;15.95;;;;;;;14.80;82.20;102096.78;687940;28;943;-64
2021/06/11 00:39:06;;;;;;;25.90;15.63;;;;;;;14.76;82.19;102100.47;688361;28;1290;-65
2021/06/11 00:39:26;;;;;;;26.67;15.73;;;;;;;14.74;82.18;102097.03;688231;28;1043;-65
2021/06/11 00:39:46;;;;;;;27.42;16.88;;;;;;;14.77;82.10;102100.41;688344;28;959;-65
2021/06/11 00:40:08;;;;;;;27.30;16.93;;;;;;;14.66;82.24;102103.50;688448;28;856;-65
2021/06/11 00:40:30;;;;;;;29.02;17.15;;;;;;;14.61;82.44;102100.16;687929;28;829;-65
2021/06/11 00:40:50;;;;;;;28.15;17.23;;;;;;;14.63;82.81;102095.66;688212;28;1100;-65
2021/06/11 00:41:11;;;;;;;28.03;16.43;;;;;;;14.61;82.88;102100.16;688210;28;856;-65
2021/06/11 00:41:32;;;;;;;27.38;16.30;;;;;;;14.57;82.69;102095.88;685328;28;884;-66
2021/06/11 00:42:00;;;;;;;26.42;16.10;;;;;;;14.57;82.97;102103.84;685469;28;858;-65
2021/06/11 00:42:20;;;;;;;27.77;15.88;;;;;;;14.55;83.33;102100.38;686161;28;1055;-65
2021/06/11 00:42:40;;;;;;;26.77;16.50;;;;;;;14.58;83.32;102102.91;688150;28;821;-65
2021/06/11 00:43:03;;;;;;;25.37;15.90;;;;;;;14.66;83.22;102092.88;688120;28;879;-65
2021/06/11 00:43:26;;;;;;;24.48;15.52;;;;;;;14.69;82.75;102094.53;688263;28;892;-65
2021/06/11 00:43:49;;;;;;;27.33;15.43;;;;;;;14.69;83.05;102091.88;688203;28;931;-64
2021/06/11 00:44:16;;;;;;;26.83;15.70;;;;;;;14.66;82.86;102099.97;688269;28;923;-64
2021/06/11 00:44:36;;;;;;;25.48;15.98;;;;;;;14.67;82.88;102099.06;688558;28;1583;-65
2021/06/11 00:44:56;;;;;;;26.27;16.27;;;;;;;14.67;82.90;102099.91;688088;28;1019;-65
2021/06/11 00:45:17;;;;;;;27.90;16.57;;;;;;;14.69;82.58;102086.56;688053;28;911;-64
2021/06/11 00:45:42;;;;;;;26.35;15.90;;;;;;;14.72;82.67;102091.75;688060;28;1062;-65
2021/06/11 00:46:02;;;;;;;27.65;16.77;;;;;;;14.63;82.69;102098.31;688020;28;918;-65
2021/06/11 00:46:23;;;;;;;29.17;17.73;;;;;;;14.67;82.59;102099.91;688183;28;845;-65
2021/06/11 00:46:43;;;;;;;29.93;18.40;;;;;;;14.58;82.67;102094.94;688329;28;883;-65
2021/06/11 00:47:03;;;;;;;31.63;19.47;;;;;;;14.64;82.73;102094.72;687746;28;1427;-65
2021/06/11 00:47:24;;;;;;;29.80;18.03;;;;;;;14.67;82.70;102089.28;688287;28;1338;-64
2021/06/11 00:47:47;;;;;;;28.80;17.73;;;;;;;14.72;82.44;102091.75;688149;28;807;-65
2021/06/11 00:48:12;;;;;;;27.35;17.50;;;;;;;14.78;82.43;102093.31;689838;28;1591;-65
2021/06/11 00:48:32;;;;;;;28.55;16.70;;;;;;;14.83;82.04;102088.69;690463;28;860;-65
2021/06/11 00:48:52;;;;;;;29.13;17.10;;;;;;;14.82;82.24;102092.25;690914;28;880;-65
2021/06/11 00:49:12;;;;;;;28.83;17.87;;;;;;;14.82;81.84;102092.25;690343;28;1618;-65
2021/06/11 00:49:33;;;;;;;27.73;18.33;;;;;;;14.83;82.03;102089.56;688348;28;777;-65
2021/06/11 00:49:53;;;;;;;29.67;18.97;;;;;;;14.86;82.42;102093.88;688210;28;989;-66
2021/06/11 00:50:19;;;;;;;29.33;18.40;;;;;;;14.88;82.52;102086.72;688233;28;903;-65
2021/06/11 00:50:40;;;;;;;27.70;17.40;;;;;;;14.93;82.20;102090.03;688210;28;881;-65
2021/06/11 00:51:00;;;;;;;28.90;17.50;;;;;;;14.91;81.77;102089.25;688290;28;1012;-66
2021/06/11 00:51:21;;;;;;;30.03;18.50;;;;;;;14.92;81.95;102088.31;688258;28;1154;-66
2021/06/11 00:51:44;;;;;;;29.08;18.08;;;;;;;14.94;81.82;102091.78;688151;28;1734;-65
2021/06/11 00:52:06;;;;;;;25.92;16.65;;;;;;;14.88;81.63;102086.72;688164;28;1019;-66
2021/06/11 00:52:26;;;;;;;25.52;16.77;;;;;;;14.86;81.87;102085.91;688259;28;891;-65
2021/06/11 00:52:46;;;;;;;26.33;17.02;;;;;;;14.86;81.62;102084.09;687935;28;1125;-65
2021/06/11 00:53:09;;;;;;;26.53;17.17;;;;;;;14.80;81.93;102088.81;688232;28;975;-65
2021/06/11 00:53:29;;;;;;;26.55;16.75;;;;;;;14.80;81.85;102088.81;688047;28;1366;-65
2021/06/11 00:53:49;;;;;;;25.85;16.67;;;;;;;14.79;82.01;102087.06;688326;28;852;-65
2021/06/11 00:54:10;;;;;;;24.23;16.33;;;;;;;14.83;82.18;102081.59;688162;28;895;-66
2021/06/11 00:54:31;;;;;;;25.50;16.00;;;;;;;14.87;81.61;102074.38;688175;28;827;-65
2021/06/11 00:54:51;;;;;;;24.77;16.20;;;;;;;14.90;81.75;102079.53;689256;28;1472;-65
2021/06/11 00:55:11;;;;;;;24.40;15.90;;;;;;;14.90;81.74;102076.88;690978;28;866;-65
2021/06/11 00:55:32;;;;;;;24.03;16.20;;;;;;;14.82;82.17;102082.50;690925;28;911;-66
2021/06/11 00:55:52;;;;;;;25.48;16.88;;;;;;;14.81;81.87;102074.63;691051;28;913;-65
2021/06/11 00:56:12;;;;;;;28.47;17.07;;;;;;;14.77;82.02;102080.97;690860;28;923;-66
2021/06/11 00:56:33;;;;;;;27.07;16.70;;;;;;;14.74;82.46;102084.63;690967;28;936;-66
2021/06/11 00:56:53;;;;;;;23.92;16.67;;;;;;;14.76;82.46;102079.22;691058;28;895;-65
2021/06/11 00:57:14;;;;;;;23.90;16.27;;;;;;;14.79;82.27;102076.47;690836;28;1269;-66
2021/06/11 00:57:35;;;;;;;24.08;15.70;;;;;;;14.79;81.99;102081.75;691102;28;866;-65
2021/06/11 00:57:59;;;;;;;24.17;16.10;;;;;;;14.86;82.02;102083.25;691069;28;1000;-65
2021/06/11 00:58:19;;;;;;;22.70;15.60;;;;;;;14.81;81.90;102079.94;690455;28;1965;-64
2021/06/11 00:58:43;;;;;;;22.33;15.63;;;;;;;14.85;81.77;102086.84;690524;28;852;-65
2021/06/11 00:59:03;;;;;;;22.90;15.88;;;;;;;14.79;81.93;102082.63;690928;28;966;-65
2021/06/11 00:59:23;;;;;;;24.10;15.90;;;;;;;14.78;81.85;102082.69;690946;28;1250;-65
2021/06/11 00:59:44;;;;;;;22.90;15.40;;;;;;;14.82;82.19;102082.50;691063;28;998;-67
2021/06/11 01:00:11;;;;;;;22.03;15.33;;;;;;;14.84;82.21;102079.81;690915;28;903;-65
2021/06/11 01:00:31;;;;;;;23.52;16.05;;;;;;;14.83;82.07;102083.38;690880;28;712;-66
2021/06/11 01:00:51;;;;;;;22.97;15.90;;;;;;;14.84;81.93;102083.31;690947;28;856;-65
2021/06/11 01:01:14;;;;;;;24.93;16.50;;;;;;;14.81;81.81;102083.44;690787;28;934;-65
2021/06/11 01:01:35;;;;;;;26.50;16.67;;;;;;;14.82;82.11;102081.66;690920;28;1089;-66
2021/06/11 01:01:56;;;;;;;22.75;15.77;;;;;;;14.86;82.13;102077.94;690936;28;922;-65
2021/06/11 01:02:16;;;;;;;21.33;15.13;;;;;;;14.88;81.74;102082.28;689234;28;1571;-65
2021/06/11 01:02:36;;;;;;;22.20;15.40;;;;;;;14.89;81.86;102084.00;688175;28;962;-67
2021/06/11 01:02:57;;;;;;;23.63;15.57;;;;;;;14.91;81.72;102081.28;688216;28;897;-65
2021/06/11 01:03:18;;;;;;;23.40;16.08;;;;;;;14.86;81.86;102084.09;688340;28;974;-65
2021/06/11 01:03:38;;;;;;;22.52;15.95;;;;;;;14.87;81.77;102088.50;689326;28;1512;-65
2021/06/11 01:03:58;;;;;;;21.40;15.70;;;;;;;14.89;81.91;102078.69;688119;28;811;-65
2021/06/11 01:04:22;;;;;;;22.90;16.20;;;;;;;14.94;82.04;102083.81;688990;28;1496;-64
2021/06/11 01:04:45;;;;;;;21.85;15.63;;;;;;;14.96;81.85;102084.59;690770;28;919;-65
2021/06/11 01:05:06;;;;;;;21.63;15.13;;;;;;;15.00;81.91;102085.34;691021;28;835;-66
2021/06/11 01:05:26;;;;;;;22.00;15.82;;;;;;;14.91;81.57;102078.63;691052;28;991;-64
2021/06/11 01:05:47;;;;;;;21.67;16.23;;;;;;;14.91;81.71;102081.28;690886;28;881;-64
2021/06/11 01:06:07;;;;;;;22.37;15.93;;;;;;;14.92;82.02;102077.69;690896;28;1177;-65
2021/06/11 01:06:28;;;;;;;21.30;15.77;;;;;;;14.91;81.69;102075.97;690904;28;954;-64
2021/06/11 01:06:49;;;;;;;22.15;16.00;;;;;;;14.92;81.99;102077.69;690808;28;838;-65
2021/06/11 01:07:10;;;;;;;21.02;15.35;;;;;;;14.95;81.66;102080.22;691000;28;1233;-65
2021/06/11 01:07:31;;;;;;;22.40;16.10;;;;;;;14.93;81.79;102076.75;690923;28;835;-65
2021/06/11 01:07:53;;;;;;;22.42;16.45;;;;;;;14.89;81.65;102077.81;690953;28;990;-65
2021/06/11 01:08:16;;;;;;;21.70;16.50;;;;;;;14.92;81.56;102078.56;691017;28;914;-65
2021/06/11 01:08:36;;;;;;;20.50;15.98;;;;;;;14.94;81.69;102075.88;690282;28;828;-64
2021/06/11 01:08:57;;;;;;;20.67;15.55;;;;;;;14.97;81.67;102078.41;690676;28;1642;-65
2021/06/11 01:09:18;;;;;;;21.20;15.25;;;;;;;14.96;81.64;102077.50;691010;28;892;-65
2021/06/11 01:09:41;;;;;;;21.60;15.73;;;;;;;14.98;81.61;102080.13;690556;28;1558;-65
2021/06/11 01:10:01;;;;;;;22.52;16.15;;;;;;;15.00;81.41;102075.59;690916;28;1593;-65
2021/06/11 01:10:22;;;;;;;22.00;16.47;;;;;;;15.00;81.62;102077.38;690931;28;812;-65
2021/06/11 01:10:44;;;;;;;21.95;16.02;;;;;;;14.97;81.67;102073.09;690849;28;950;-65
2021/06/11 01:11:07;;;;;;;21.42;16.45;;;;;;;15.01;81.76;102076.47;690855;28;866;-66
2021/06/11 01:11:27;;;;;;;20.85;16.08;;;;;;;14.98;81.48;102076.59;690963;28;983;-65
2021/06/11 01:11:48;;;;;;;21.67;15.87;;;;;;;14.99;81.41;102075.66;690966;28;939;-65
2021/06/11 01:12:10;;;;;;;20.57;15.60;;;;;;;14.98;81.39;102074.81;690944;28;819;-66
2021/06/11 01:12:32;;;;;;;20.35;15.23;;;;;;;14.96;81.49;102077.50;690958;28;918;-65
2021/06/11 01:12:55;;;;;;;19.95;15.80;;;;;;;14.95;81.68;102077.59;690880;28;1022;-65
2021/06/11 01:13:17;;;;;;;21.30;16.20;;;;;;;14.97;81.31;102075.75;690882;28;792;-65
2021/06/11 01:13:37;;;;;;;21.10;15.82;;;;;;;14.99;81.50;102076.53;691016;28;895;-65
2021/06/11 01:13:58;;;;;;;19.40;15.48;;;;;;;14.98;81.53;102073.94;690885;28;1041;-65
2021/06/11 01:14:18;;;;;;;20.10;15.80;;;;;;;14.96;81.47;102074.84;690982;28;874;-65
2021/06/11 01:14:41;;;;;;;21.65;15.93;;;;;;;14.98;81.69;102069.50;690926;28;867;-65
2021/06/11 01:15:07;;;;;;;21.08;15.52;;;;;;;15.00;81.38;102074.72;690380;28;1551;-65
2021/06/11 01:15:30;;;;;;;21.27;15.82;;;;;;;14.74;82.51;102074.00;690540;28;1523;-65
2021/06/11 01:15:51;;;;;;;21.65;16.42;;;;;;;14.76;82.62;102073.94;690973;28;851;-65
2021/06/11 01:16:11;;;;;;;20.33;16.02;;;;;;;14.75;82.42;102075.72;690862;28;1033;-65
2021/06/11 01:16:31;;;;;;;21.40;16.27;;;;;;;14.75;82.58;102069.56;691072;28;891;-65
2021/06/11 01:16:52;;;;;;;21.53;16.10;;;;;;;14.78;82.87;102074.75;689117;28;1555;-65
2021/06/11 01:17:13;;;;;;;21.42;15.93;;;;;;;14.79;82.50;102073.81;688159;28;1305;-66
2021/06/11 01:17:36;;;;;;;22.33;16.27;;;;;;;14.81;82.60;102069.31;688300;28;828;-64
2021/06/11 01:17:59;;;;;;;21.38;16.23;;;;;;;14.82;82.82;102073.69;687970;28;843;-63
2021/06/11 01:18:26;;;;;;;21.42;15.70;;;;;;;14.82;82.70;102060.41;688184;28;1979;-65
2021/06/11 01:18:46;;;;;;;20.95;15.98;;;;;;;14.75;82.94;102062.44;688019;28;983;-65
2021/06/11 01:19:10;;;;;;;21.53;16.43;;;;;;;14.72;83.17;102065.22;688115;28;1579;-65
2021/06/11 01:19:38;;;;;;;22.38;16.05;;;;;;;14.76;83.07;102058.00;688104;28;1563;-65
2021/06/11 01:19:58;;;;;;;20.50;15.35;;;;;;;14.73;82.84;102064.31;688183;28;1015;-65
2021/06/11 01:20:22;;;;;;;20.33;15.40;;;;;;;14.73;82.71;102064.31;688250;28;976;-65
2021/06/11 01:20:43;;;;;;;21.40;16.02;;;;;;;14.76;82.98;102066.81;688083;28;863;-65
2021/06/11 01:21:09;;;;;;;20.63;15.98;;;;;;;14.79;83.09;102060.53;688081;28;967;-66
2021/06/11 01:21:32;;;;;;;19.75;15.50;;;;;;;14.81;82.77;102058.69;688322;28;904;-65
2021/06/11 01:22:10;;;;;;;20.88;16.35;;;;;;;14.81;82.80;102061.34;688070;28;929;-65
2021/06/11 01:22:52;;;;;;;21.00;16.77;;;;;;;14.84;82.52;102061.22;687863;28;1371;-66
2021/06/11 01:23:35;;;;;;;21.88;16.33;;;;;;;14.88;82.27;102050.41;688181;28;934;-65
2021/06/11 01:24:16;;;;;;;20.98;16.55;;;;;;;14.81;82.18;102053.38;688194;28;1547;-66
2021/06/11 01:24:50;;;;;;;22.65;17.27;;;;;;;14.83;82.23;102057.72;688355;28;1394;-65
2021/06/11 01:25:14;;;;;;;22.40;16.98;;;;;;;14.78;82.48;102058.81;689773;28;1473;-66
2021/06/11 01:25:45;;;;;;;22.55;17.45;;;;;;;14.81;82.70;102053.38;690848;28;824;-65
2021/06/11 01:26:22;;;;;;;23.60;17.40;;;;;;;14.78;82.55;102061.47;691025;28;820;-65
2021/06/11 01:26:49;;;;;;;22.45;16.98;;;;;;;14.69;82.75;102050.31;690874;28;902;-65
2021/06/11 01:27:09;;;;;;;22.63;17.15;;;;;;;14.80;82.74;102054.31;689511;28;1487;-66
2021/06/11 01:27:31;;;;;;;22.97;16.80;;;;;;;14.78;82.74;102053.50;688055;28;878;-65
2021/06/11 01:27:52;;;;;;;22.92;16.23;;;;;;;14.86;82.76;102056.72;688277;28;1006;-66
2021/06/11 01:28:13;;;;;;;22.55;16.75;;;;;;;14.82;82.63;102049.81;688083;28;983;-65
2021/06/11 01:28:34;;;;;;;23.02;16.10;;;;;;;14.78;82.94;102050.84;688772;28;1523;-65
2021/06/11 01:29:00;;;;;;;22.47;16.20;;;;;;;14.81;82.90;102053.38;688189;28;1156;-65
2021/06/11 01:29:28;;;;;;;22.13;15.98;;;;;;;14.81;82.92;102050.75;688029;28;891;-65
2021/06/11 01:29:52;;;;;;;22.38;16.00;;;;;;;14.79;82.78;102052.56;688272;28;963;-67
2021/06/11 01:30:38;;;;;;;21.52;15.52;;;;;;;14.82;82.88;102049.81;688166;28;896;-65
2021/06/11 01:30:59;;;;;;;22.77;16.17;;;;;;;14.82;82.93;102055.09;688151;28;923;-64
2021/06/11 01:31:20;;;;;;;21.13;15.25;;;;;;;14.85;82.49;102052.34;688231;28;1015;-65
2021/06/11 01:31:45;;;;;;;21.90;15.20;;;;;;;14.81;82.92;102053.38;688138;28;861;-64
2021/06/11 01:32:07;;;;;;;22.75;15.98;;;;;;;14.85;83.03;102055.00;688042;28;1489;-64
2021/06/11 01:32:27;;;;;;;22.65;16.00;;;;;;;14.84;82.87;102048.81;688336;28;1444;-64
2021/06/11 01:32:50;;;;;;;24.53;15.20;;;;;;;14.66;83.17;102049.56;687881;28;884;-65
2021/06/11 01:33:13;;;;;;;23.25;15.13;;;;;;;14.71;83.32;102048.44;685261;28;1098;-65
2021/06/11 01:33:36;;;;;;;21.05;14.75;;;;;;;14.75;83.38;102049.19;685238;28;891;-65
2021/06/11 01:34:08;;;;;;;20.75;15.20;;;;;;;14.76;83.14;102050.91;685303;28;908;-65
2021/06/11 01:34:32;;;;;;;23.30;15.82;;;;;;;14.71;83.47;102053.75;685350;28;959;-65
2021/06/11 01:34:53;;;;;;;22.88;15.45;;;;;;;14.74;83.47;102051.91;687878;28;935;-64
2021/06/11 01:35:20;;;;;;;21.73;15.25;;;;;;;14.74;83.34;102049.25;688076;28;1073;-65
2021/06/11 01:35:46;;;;;;;23.45;15.77;;;;;;;14.75;83.58;102054.50;687999;28;1035;-65
2021/06/11 01:36:11;;;;;;;23.42;16.00;;;;;;;14.75;83.16;102050.97;688269;28;821;-64
2021/06/11 01:36:45;;;;;;;22.75;15.80;;;;;;;14.74;82.97;102047.47;688072;28;1058;-65
2021/06/11 01:37:07;;;;;;;22.45;15.18;;;;;;;14.75;83.23;102048.31;687969;28;1390;-64
2021/06/11 01:37:32;;;;;;;23.02;15.48;;;;;;;14.76;83.20;102050.03;688242;28;958;-67
2021/06/11 01:37:57;;;;;;;21.77;15.02;;;;;;;14.78;82.91;102053.50;688119;28;881;-64
2021/06/11 01:38:22;;;;;;;22.27;15.40;;;;;;;14.69;83.13;102045.00;688061;28;1898;-65
2021/06/11 01:38:45;;;;;;;21.52;15.43;;;;;;;14.74;83.30;102054.56;687728;28;955;-64
2021/06/11 01:39:08;;;;;;;22.33;15.27;;;;;;;14.75;83.28;102043.00;689088;28;1558;-64
2021/06/11 01:39:31;;;;;;;22.77;15.48;;;;;;;14.79;83.26;102049.91;690788;28;951;-64
2021/06/11 01:39:54;;;;;;;21.77;15.05;;;;;;;14.82;82.89;102049.81;691009;28;1077;-65
2021/06/11 01:40:15;;;;;;;21.80;15.45;;;;;;;14.82;83.15;102049.81;690902;28;933;-65
2021/06/11 01:40:47;;;;;;;22.42;15.23;;;;;;;14.83;83.25;102047.09;690901;28;797;-65
2021/06/11 01:41:09;;;;;;;22.27;15.82;;;;;;;14.83;83.11;102051.53;690757;28;1306;-65
2021/06/11 01:41:33;;;;;;;22.42;15.23;;;;;;;14.80;82.91;102043.72;690959;28;1215;-64
2021/06/11 01:41:55;;;;;;;23.38;15.32;;;;;;;14.78;83.25;102050.84;690782;28;875;-64
2021/06/11 01:42:16;;;;;;;22.67;15.38;;;;;;;14.75;83.09;102043.00;690878;28;962;-65
2021/06/11 01:42:39;;;;;;;22.10;14.83;;;;;;;14.77;83.34;102046.47;690856;28;971;-64
2021/06/11 01:43:01;;;;;;;21.38;14.98;;;;;;;14.81;83.10;102046.28;690840;28;843;-64
2021/06/11 01:43:25;;;;;;;22.27;14.60;;;;;;;14.82;83.19;102039.19;690821;28;868;-65
2021/06/11 01:43:49;;;;;;;22.67;15.02;;;;;;;14.85;83.21;102045.22;690253;28;1495;-65
2021/06/11 01:44:11;;;;;;;20.85;14.95;;;;;;;14.85;83.21;102044.38;687966;28;1131;-65
2021/06/11 01:44:35;;;;;;;21.60;15.27;;;;;;;14.86;83.11;102046.09;688269;28;1014;-65